Time;durP1;ratioP1;P1;durP2;ratioP2;P2;SDS_P1;SDS_P2;PMS_P1;PMS_P2;Temp;Humidity;BMP_temperature;BMP_pressure;BME280_temperature;BME280_humidity;BME280_pressure;Samples;Min_cycle;Max_cycle;Signal;HPM_P1;HPM_P2
2021/09/25 00:00:55;;;;;;;13.52;10.13;;;16.10;99.90;;;;;;12468828;28;20053;-36
2021/09/25 00:06:57;;;;;;;15.00;10.82;;;16.20;99.90;;;;;;12469176;28;20574;-39
2021/09/25 00:13:00;;;;;;;16.08;10.40;;;16.10;99.90;;;;;;12490499;28;20048;-35
2021/09/25 00:19:02;;;;;;;17.13;11.32;;;16.10;99.90;;;;;;12518954;28;20057;-40
2021/09/25 00:25:05;;;;;;;17.88;13.00;;;16.00;99.90;;;;;;12476239;28;20136;-40
2021/09/25 00:31:07;;;;;;;18.63;12.65;;;16.00;99.90;;;;;;12481002;28;20055;-35
2021/09/25 00:37:09;;;;;;;14.52;11.25;;;15.90;99.90;;;;;;12514107;28;20065;-40
2021/09/25 00:43:11;;;;;;;19.08;12.60;;;15.90;99.90;;;;;;12518222;28;20057;-36
2021/09/25 00:49:20;;;;;;;14.52;11.98;;;15.90;99.90;;;;;;12518327;28;20497;-36
2021/09/25 00:55:22;;;;;;;15.63;12.63;;;15.90;99.90;;;;;;12519373;28;20167;-40
2021/09/25 01:01:24;;;;;;;16.83;12.10;;;15.80;99.90;;;;;;12529798;28;20105;-36
2021/09/25 01:07:26;;;;;;;15.93;12.35;;;15.90;99.90;;;;;;12521786;28;20129;-35
2021/09/25 01:13:30;;;;;;;14.57;12.30;;;15.90;99.90;;;;;;12526950;28;20053;-39
2021/09/25 01:19:32;;;;;;;15.90;12.45;;;15.80;99.90;;;;;;12524769;28;20057;-36
2021/09/25 01:25:34;;;;;;;15.63;11.75;;;15.90;99.90;;;;;;12523189;28;20522;-41
2021/09/25 01:31:36;;;;;;;19.10;13.02;;;15.80;99.90;;;;;;12524554;28;20083;-37
2021/09/25 01:37:39;;;;;;;18.80;12.95;;;15.70;99.90;;;;;;12523787;28;20059;-38
2021/09/25 01:43:41;;;;;;;16.20;12.23;;;15.60;99.90;;;;;;12529034;28;20171;-35
2021/09/25 01:49:43;;;;;;;19.88;12.30;;;15.60;99.90;;;;;;12526185;28;20053;-44
2021/09/25 01:55:45;;;;;;;18.25;12.55;;;15.60;99.90;;;;;;12521961;28;20045;-36
2021/09/25 02:01:47;;;;;;;15.65;12.10;;;15.70;99.90;;;;;;12525184;28;20048;-36
2021/09/25 02:07:49;;;;;;;18.83;12.52;;;15.60;99.90;;;;;;12520494;28;20091;-39
2021/09/25 02:13:52;;;;;;;17.92;12.00;;;15.50;99.90;;;;;;12523045;28;20792;-35
2021/09/25 02:19:54;;;;;;;16.10;11.07;;;15.60;99.90;;;;;;12522874;28;20053;-40
2021/09/25 02:25:56;;;;;;;17.35;12.07;;;15.60;99.90;;;;;;12523185;28;20053;-41
2021/09/25 02:31:58;;;;;;;15.88;11.07;;;15.60;99.90;;;;;;12523101;28;20068;-35
2021/09/25 02:37:59;;;;;;;13.90;10.95;;;15.50;99.90;;;;;;12524264;28;21581;-39
2021/09/25 02:44:02;;;;;;;15.60;11.15;;;15.60;99.90;;;;;;12515371;28;20535;-36
2021/09/25 02:50:06;;;;;;;17.38;11.05;;;15.50;99.90;;;;;;12520663;28;20064;-35
2021/09/25 02:56:08;;;;;;;13.20;10.55;;;15.50;99.90;;;;;;12522509;28;20144;-36
2021/09/25 03:02:10;;;;;;;16.65;10.65;;;15.50;99.90;;;;;;12517569;28;20040;-35
2021/09/25 03:08:13;;;;;;;17.90;9.93;;;15.60;99.90;;;;;;12519681;28;20102;-39
2021/09/25 03:14:15;;;;;;;16.02;10.50;;;15.60;99.90;;;;;;12518477;28;20087;-40
2021/09/25 03:20:17;;;;;;;12.95;10.10;;;15.60;99.90;;;;;;12519893;28;20102;-39
2021/09/25 03:26:19;;;;;;;16.00;10.93;;;15.60;99.90;;;;;;12515034;28;20165;-37
2021/09/25 03:32:21;;;;;;;14.40;10.35;;;15.60;99.90;;;;;;12518505;28;20052;-41
2021/09/25 03:38:24;;;;;;;16.80;11.23;;;15.60;99.90;;;;;;12517369;28;20055;-35
2021/09/25 03:44:26;;;;;;;15.13;11.03;;;15.60;99.90;;;;;;12518380;28;20591;-39
2021/09/25 03:50:28;;;;;;;15.95;11.20;;;15.60;99.90;;;;;;12517495;28;20113;-42
2021/09/25 03:56:30;;;;;;;18.60;12.20;;;15.60;99.90;;;;;;12517329;28;20041;-39
2021/09/25 04:02:32;;;;;;;18.27;12.18;;;15.50;99.90;;;;;;12516998;28;20061;-39
2021/09/25 04:08:34;;;;;;;17.52;12.20;;;15.40;99.90;;;;;;12518344;28;20570;-39
2021/09/25 04:14:36;;;;;;;19.20;13.38;;;15.40;99.90;;;;;;12514815;28;20040;-36
2021/09/25 04:20:38;;;;;;;16.42;12.05;;;15.30;99.90;;;;;;12515722;28;20120;-39
2021/09/25 04:26:40;;;;;;;18.40;12.02;;;15.30;99.90;;;;;;12517099;28;20057;-41
2021/09/25 04:32:43;;;;;;;16.65;11.57;;;15.30;99.90;;;;;;12522792;28;20131;-35
2021/09/25 04:38:45;;;;;;;21.13;11.45;;;15.30;99.90;;;;;;12527784;28;20053;-41
2021/09/25 04:44:47;;;;;;;18.05;12.00;;;15.30;99.90;;;;;;12526809;28;20106;-39
2021/09/25 04:50:49;;;;;;;17.42;10.80;;;15.30;99.90;;;;;;12527819;28;20134;-35
2021/09/25 04:56:50;;;;;;;18.48;11.13;;;15.30;99.90;;;;;;12525138;28;20168;-35
2021/09/25 05:02:52;;;;;;;20.45;11.27;;;15.30;99.90;;;;;;12523941;28;20087;-36
2021/09/25 05:08:56;;;;;;;16.05;10.95;;;15.20;99.90;;;;;;12526160;28;20049;-39
2021/09/25 05:14:58;;;;;;;17.17;10.93;;;15.20;99.90;;;;;;12522569;28;20040;-39
2021/09/25 05:21:00;;;;;;;16.50;10.50;;;15.20;99.90;;;;;;12527919;28;20056;-39
2021/09/25 05:27:02;;;;;;;16.30;10.00;;;15.10;99.90;;;;;;12525028;28;20053;-35
2021/09/25 05:33:06;;;;;;;14.52;9.55;;;15.20;99.90;;;;;;12529779;28;20093;-39
2021/09/25 05:39:08;;;;;;;15.20;9.82;;;15.20;99.90;;;;;;12528108;28;20056;-36
2021/09/25 05:45:12;;;;;;;15.57;9.85;;;15.20;99.90;;;;;;12528087;28;20053;-39
2021/09/25 05:51:16;;;;;;;14.77;9.27;;;15.20;99.90;;;;;;12526862;28;20590;-39
2021/09/25 05:57:19;;;;;;;16.70;9.48;;;15.20;99.90;;;;;;12525035;28;20051;-39
2021/09/25 06:03:21;;;;;;;15.45;9.82;;;15.10;99.90;;;;;;12518360;28;20124;-35
2021/09/25 06:09:24;;;;;;;21.85;10.00;;;15.10;99.90;;;;;;12528255;28;20048;-35
2021/09/25 06:15:41;;;;;;;12.07;8.43;;;15.20;99.90;;;;;;12525521;28;20045;-39
2021/09/25 06:21:53;;;;;;;12.43;8.50;;;15.20;99.90;;;;;;12528029;28;20111;-38
2021/09/25 06:27:58;;;;;;;13.07;8.93;;;15.10;99.90;;;;;;12524604;28;20090;-39
2021/09/25 06:34:10;;;;;;;14.32;9.10;;;15.10;99.90;;;;;;12515581;28;20457;-35
2021/09/25 06:40:14;;;;;;;13.48;8.93;;;15.20;99.90;;;;;;12520974;28;20045;-39
2021/09/25 06:46:16;;;;;;;14.20;8.50;;;15.20;99.90;;;;;;12493328;28;20102;-40
2021/09/25 06:52:18;;;;;;;13.82;8.68;;;15.30;99.90;;;;;;12508211;28;20072;-36
2021/09/25 06:58:20;;;;;;;14.05;8.00;;;15.30;99.90;;;;;;12512974;28;20098;-36
2021/09/25 07:04:22;;;;;;;13.88;8.25;;;15.40;99.90;;;;;;12510455;28;20049;-42
2021/09/25 07:10:23;;;;;;;14.93;8.52;;;15.30;99.90;;;;;;12515405;28;20057;-35
2021/09/25 07:16:26;;;;;;;11.05;7.55;;;15.40;99.90;;;;;;12515655;28;20045;-36
2021/09/25 07:22:28;;;;;;;13.73;7.85;;;15.50;99.90;;;;;;12514789;28;20102;-35
2021/09/25 07:28:30;;;;;;;14.00;8.32;;;15.50;99.90;;;;;;12515490;28;20346;-39
2021/09/25 07:34:32;;;;;;;12.30;7.47;;;15.60;99.90;;;;;;12515480;28;20551;-41
2021/09/25 07:40:34;;;;;;;14.70;8.77;;;15.70;99.90;;;;;;12514452;28;20048;-40
2021/09/25 07:46:36;;;;;;;13.23;7.30;;;15.60;99.90;;;;;;12514128;28;20067;-36
2021/09/25 07:52:41;;;;;;;13.60;7.18;;;15.70;99.90;;;;;;12514933;28;20858;-35
2021/09/25 07:58:43;;;;;;;13.45;8.07;;;15.80;99.90;;;;;;12514981;28;20113;-36
2021/09/25 08:04:45;;;;;;;15.18;7.00;;;15.80;99.90;;;;;;12514686;28;20889;-40
2021/09/25 08:10:47;;;;;;;11.25;7.35;;;16.00;99.90;;;;;;12516851;28;20132;-36
2021/09/25 08:16:50;;;;;;;11.93;7.55;;;16.10;99.90;;;;;;12515994;28;20063;-36
2021/09/25 08:22:52;;;;;;;13.40;7.50;;;16.20;99.90;;;;;;12514988;28;20049;-43
2021/09/25 08:28:54;;;;;;;9.73;6.85;;;16.20;99.90;;;;;;12511940;28;20057;-39
2021/09/25 08:34:55;;;;;;;12.18;7.05;;;16.40;99.90;;;;;;12510273;28;20102;-36
2021/09/25 08:40:59;;;;;;;12.30;6.88;;;16.60;99.90;;;;;;12511194;28;20041;-35
2021/09/25 08:47:01;;;;;;;13.10;7.50;;;16.70;99.90;;;;;;12510729;28;20059;-35
2021/09/25 08:53:03;;;;;;;12.57;6.30;;;16.70;99.90;;;;;;12513161;28;21131;-41
2021/09/25 08:59:08;;;;;;;11.75;6.60;;;16.90;99.90;;;;;;12515484;28;20041;-41
2021/09/25 09:05:10;;;;;;;11.82;6.75;;;16.90;99.90;;;;;;12513352;28;20443;-36
2021/09/25 09:11:13;;;;;;;11.10;6.80;;;16.90;99.90;;;;;;12514415;28;20048;-35
2021/09/25 09:17:16;;;;;;;11.15;6.72;;;17.00;99.90;;;;;;12517316;28;20053;-39
2021/09/25 09:23:19;;;;;;;9.82;6.68;;;17.00;99.90;;;;;;12520140;28;20045;-35
2021/09/25 09:29:32;;;;;;;10.77;6.15;;;17.00;99.90;;;;;;12521962;28;20057;-40
2021/09/25 09:35:34;;;;;;;11.77;6.47;;;17.20;99.90;;;;;;12520862;28;20049;-39
2021/09/25 09:41:51;;;;;;;12.00;6.72;;;17.20;99.90;;;;;;12521400;28;20107;-36
2021/09/25 09:47:56;;;;;;;11.85;6.72;;;17.50;99.90;;;;;;12521499;28;20056;-36
2021/09/25 09:54:00;;;;;;;9.55;6.13;;;17.50;99.90;;;;;;12520776;28;20053;-40
2021/09/25 10:00:03;;;;;;;;;;;17.90;99.90;;;;;;12517456;28;20053;-40
2021/09/25 10:06:05;;;;;;;12.65;6.43;;;18.30;99.90;;;;;;12526075;28;19925;-36
2021/09/25 10:12:11;;;;;;;9.10;5.97;;;18.80;99.90;;;;;;12520578;28;20853;-36
2021/09/25 10:18:16;;;;;;;10.23;6.43;;;19.00;99.90;;;;;;12519885;28;20756;-36
2021/09/25 10:24:21;;;;;;;8.27;6.13;;;19.10;99.90;;;;;;12517639;28;20623;-36
2021/09/25 10:30:34;;;;;;;19.52;7.60;;;19.30;99.90;;;;;;12517544;28;20049;-39
2021/09/25 10:36:39;;;;;;;9.82;6.60;;;19.40;99.90;;;;;;12517827;28;20448;-35
2021/09/25 10:43:04;;;;;;;11.15;6.43;;;19.50;99.90;;;;;;12516254;28;20131;-37
2021/09/25 10:49:14;;;;;;;9.13;5.93;;;20.00;99.90;;;;;;12518858;28;20098;-36
2021/09/25 10:55:28;;;;;;;14.02;6.85;;;20.30;99.90;;;;;;12513522;28;20171;-39
2021/09/25 11:01:34;;;;;;;10.75;6.38;;;20.00;99.90;;;;;;12517878;28;20053;-39
2021/09/25 11:07:37;;;;;;;11.85;7.03;;;19.80;99.90;;;;;;12516756;28;20045;-36
2021/09/25 11:14:02;;;;;;;9.18;7.00;;;19.70;99.90;;;;;;12520441;28;20245;-39
2021/09/25 11:20:08;;;;;;;9.10;7.32;;;20.40;99.90;;;;;;12516678;28;20061;-39
2021/09/25 11:26:12;;;;;;;10.02;6.18;;;20.90;99.90;;;;;;12521135;28;20060;-43
2021/09/25 11:32:14;;;;;;;14.18;6.15;;;21.30;99.90;;;;;;12515285;28;20057;-35
2021/09/25 11:38:17;;;;;;;9.95;6.40;;;21.50;99.90;;;;;;12515674;28;20040;-41
2021/09/25 11:44:19;;;;;;;11.40;6.82;;;21.60;99.90;;;;;;12515557;28;20114;-37
2021/09/25 11:50:27;;;;;;;15.45;6.50;;;21.70;99.90;;;;;;12515183;28;20057;-39
2021/09/25 11:56:34;;;;;;;14.15;6.38;;;22.10;99.90;;;;;;12515235;28;20048;-40
2021/09/25 12:02:41;;;;;;;12.10;7.05;;;22.20;99.90;;;;;;12507150;28;20451;-36
2021/09/25 12:08:50;;;;;;;8.40;5.70;;;22.10;99.90;;;;;;12515233;28;20152;-37
2021/09/25 12:14:51;;;;;;;11.00;6.53;;;22.30;99.90;;;;;;12510328;28;20491;-36
2021/09/25 12:20:55;;;;;;;11.63;6.38;;;22.50;99.90;;;;;;12513960;28;20502;-36
2021/09/25 12:26:58;;;;;;;10.98;5.57;;;22.50;99.90;;;;;;12513257;28;20502;-36
2021/09/25 12:33:04;;;;;;;10.85;5.90;;;22.80;99.90;;;;;;12516252;28;20083;-36
2021/09/25 12:39:11;;;;;;;9.32;5.75;;;22.90;99.90;;;;;;12515438;28;20134;-40
2021/09/25 12:45:13;;;;;;;15.85;6.32;;;23.30;99.90;;;;;;12513017;28;20494;-41
2021/09/25 12:51:15;;;;;;;10.40;6.28;;;23.20;99.90;;;;;;12519906;28;20052;-40
2021/09/25 12:57:23;;;;;;;10.45;6.18;;;23.30;99.90;;;;;;12524633;28;20440;-40
2021/09/25 13:03:25;;;;;;;11.00;6.53;;;23.30;99.90;;;;;;12516821;28;20052;-36
2021/09/25 13:09:46;;;;;;;10.98;6.05;;;23.00;99.90;;;;;;12525003;28;20064;-40
2021/09/25 13:15:48;;;;;;;10.60;6.35;;;22.80;99.90;;;;;;12521932;28;20149;-36
2021/09/25 13:21:51;;;;;;;7.53;5.47;;;22.80;99.90;;;;;;12522578;28;20323;-36
2021/09/25 13:27:54;;;;;;;14.83;6.00;;;22.80;99.90;;;;;;12523979;28;20064;-36
2021/09/25 13:33:56;;;;;;;12.23;6.13;;;22.80;99.90;;;;;;12522602;28;20077;-36
2021/09/25 13:39:58;;;;;;;17.30;6.25;;;22.60;99.90;;;;;;12515529;28;20479;-41
2021/09/25 13:46:00;;;;;;;13.43;6.72;;;22.60;99.90;;;;;;12522633;28;20048;-40
2021/09/25 13:52:03;;;;;;;10.18;6.18;;;22.40;99.90;;;;;;12520155;28;20079;-37
2021/09/25 13:58:05;;;;;;;9.80;6.18;;;22.30;99.90;;;;;;12525960;28;20406;-39
2021/09/25 14:04:07;;;;;;;10.52;6.30;;;22.30;99.90;;;;;;12522438;28;20060;-37
2021/09/25 14:10:10;;;;;;;9.00;5.40;;;22.20;99.90;;;;;;12520674;28;20719;-36
2021/09/25 14:16:13;;;;;;;13.07;5.88;;;22.10;99.90;;;;;;12521400;28;20098;-40
2021/09/25 14:22:15;;;;;;;8.88;5.43;;;21.80;99.90;;;;;;12520017;28;20052;-41
2021/09/25 14:28:19;;;;;;;12.50;5.85;;;21.70;99.90;;;;;;12518284;28;20122;-36
2021/09/25 14:34:21;;;;;;;9.30;5.78;;;21.70;99.90;;;;;;12521500;28;20048;-36
2021/09/25 14:40:23;;;;;;;9.57;5.45;;;21.60;99.90;;;;;;12517639;28;20142;-40
2021/09/25 14:46:28;;;;;;;8.57;5.78;;;21.50;99.90;;;;;;12521565;28;20045;-42
2021/09/25 14:52:30;;;;;;;10.07;5.20;;;21.50;99.90;;;;;;12517909;28;20383;-36
2021/09/25 14:58:32;;;;;;;6.95;5.10;;;21.60;99.90;;;;;;12517924;28;20049;-36
2021/09/25 15:04:34;;;;;;;15.80;5.50;;;21.60;99.90;;;;;;12513746;28;20106;-37
2021/09/25 15:10:36;;;;;;;6.68;4.57;;;21.60;99.90;;;;;;12519191;28;20098;-38
2021/09/25 15:16:38;;;;;;;9.55;4.80;;;21.60;99.90;;;;;;12512415;28;20053;-36
2021/09/25 15:22:40;;;;;;;11.30;6.20;;;21.60;99.90;;;;;;12515318;28;20053;-37
2021/09/25 15:28:43;;;;;;;10.68;6.15;;;21.50;99.90;;;;;;12516121;28;20446;-41
2021/09/25 15:34:45;;;;;;;9.50;5.97;;;21.30;99.90;;;;;;12516310;28;20045;-36
2021/09/25 15:40:47;;;;;;;7.68;5.15;;;21.30;99.90;;;;;;12515344;28;20164;-36
2021/09/25 15:46:50;;;;;;;8.63;4.50;;;21.60;99.90;;;;;;12513353;28;20045;-41
2021/09/25 15:52:52;;;;;;;9.57;5.33;;;21.70;99.90;;;;;;12514710;28;20562;-41
2021/09/25 15:58:54;;;;;;;7.07;4.43;;;21.70;99.90;;;;;;12516215;28;20836;-36
2021/09/25 16:04:55;;;;;;;9.13;4.95;;;21.30;99.90;;;;;;12512049;28;20090;-37
2021/09/25 16:11:25;;;;;;;8.05;4.22;;;20.90;99.90;;;;;;12502045;28;20569;-40
2021/09/25 16:17:28;;;;;;;9.52;4.65;;;20.50;99.90;;;;;;12469232;28;20050;-36
2021/09/25 16:23:39;;;;;;;8.27;5.20;;;20.30;99.90;;;;;;12487218;28;20053;-43
2021/09/25 16:29:41;;;;;;;8.88;4.75;;;20.20;99.90;;;;;;12527863;28;20148;-40
2021/09/25 16:35:43;;;;;;;13.05;6.28;;;20.10;99.90;;;;;;12484099;28;20080;-36
2021/09/25 16:41:44;;;;;;;9.77;5.40;;;19.90;99.90;;;;;;12494330;28;20041;-37
2021/09/25 16:47:46;;;;;;;9.00;4.93;;;19.90;99.90;;;;;;12529052;28;20061;-39
2021/09/25 16:53:48;;;;;;;9.82;5.03;;;19.80;99.90;;;;;;12495069;28;20127;-39
2021/09/25 16:59:50;;;;;;;7.47;5.07;;;19.60;99.90;;;;;;12475482;28;20045;-41
2021/09/25 17:05:51;;;;;;;7.47;4.90;;;19.50;99.90;;;;;;12476297;28;20372;-37
2021/09/25 17:11:53;;;;;;;8.70;4.40;;;19.40;99.90;;;;;;12477827;28;20057;-36
2021/09/25 17:17:55;;;;;;;8.32;5.22;;;19.20;99.90;;;;;;12476553;28;20045;-36
2021/09/25 17:23:57;;;;;;;7.95;5.72;;;19.00;99.90;;;;;;12475551;28;20107;-36
2021/09/25 17:29:59;;;;;;;8.40;4.85;;;18.90;99.90;;;;;;12479978;28;20041;-36
2021/09/25 17:36:00;;;;;;;7.95;5.93;;;18.90;99.90;;;;;;12521819;28;20060;-36
2021/09/25 17:42:03;;;;;;;10.73;6.18;;;18.80;99.90;;;;;;12503729;28;20053;-42
2021/09/25 17:48:05;;;;;;;10.52;7.28;;;18.60;99.90;;;;;;12471730;28;20388;-40
2021/09/25 17:54:08;;;;;;;10.55;6.53;;;18.50;99.90;;;;;;12504728;28;20045;-41
2021/09/25 18:00:11;;;;;;;10.67;6.20;;;18.30;99.90;;;;;;12515482;28;20094;-40
2021/09/25 18:06:13;;;;;;;10.67;7.67;;;18.30;99.90;;;;;;12469414;28;20102;-40
2021/09/25 18:12:19;;;;;;;10.73;6.85;;;18.10;99.90;;;;;;12469851;28;20507;-35
2021/09/25 18:18:21;;;;;;;12.13;7.30;;;17.90;99.90;;;;;;12468270;28;20331;-35
2021/09/25 18:24:23;;;;;;;12.18;7.70;;;17.70;99.90;;;;;;12503888;28;20369;-39
2021/09/25 18:30:25;;;;;;;9.75;6.78;;;17.80;99.90;;;;;;12516073;28;20709;-36
2021/09/25 18:36:27;;;;;;;10.15;7.38;;;17.90;99.90;;;;;;12469716;28;20046;-36
2021/09/25 18:42:30;;;;;;;9.35;6.65;;;17.80;99.90;;;;;;12487494;28;20048;-42
2021/09/25 18:48:32;;;;;;;12.57;9.35;;;17.70;99.90;;;;;;12516070;28;20625;-40
2021/09/25 18:54:34;;;;;;;12.77;8.50;;;17.70;99.90;;;;;;12478820;28;20101;-40
2021/09/25 19:00:36;;;;;;;11.50;7.38;;;17.70;99.90;;;;;;12472963;28;20056;-35
2021/09/25 19:06:38;;;;;;;8.27;6.45;;;17.60;99.90;;;;;;12514977;28;20399;-41
2021/09/25 19:12:40;;;;;;;10.23;7.13;;;17.60;99.90;;;;;;12492838;28;20054;-39
2021/09/25 19:18:42;;;;;;;12.50;6.85;;;17.60;99.90;;;;;;12467287;28;20079;-41
2021/09/25 19:24:44;;;;;;;7.30;5.25;;;17.60;99.90;;;;;;12466185;28;20061;-39
2021/09/25 19:30:47;;;;;;;9.23;5.38;;;17.70;99.90;;;;;;12466150;28;20081;-37
2021/09/25 19:36:50;;;;;;;12.63;5.40;;;17.70;99.90;;;;;;12469838;28;20053;-40
2021/09/25 19:42:51;;;;;;;9.77;5.25;;;17.70;99.90;;;;;;12488384;28;20045;-40
2021/09/25 19:48:53;;;;;;;10.88;4.78;;;17.70;99.90;;;;;;12515105;28;20061;-40
2021/09/25 19:54:55;;;;;;;7.65;5.10;;;17.70;99.90;;;;;;12476510;28;20053;-41
2021/09/25 20:00:57;;;;;;;7.78;5.50;;;17.80;99.90;;;;;;12474057;28;20090;-47
2021/09/25 20:06:59;;;;;;;9.13;6.55;;;17.80;99.90;;;;;;12513778;28;20049;-35
2021/09/25 20:13:01;;;;;;;10.40;6.68;;;17.70;99.90;;;;;;12491146;28;20041;-40
2021/09/25 20:19:03;;;;;;;9.73;7.10;;;17.70;99.90;;;;;;12466178;28;20104;-35
2021/09/25 20:25:06;;;;;;;11.07;7.60;;;17.60;99.90;;;;;;12465313;28;20057;-40
2021/09/25 20:31:08;;;;;;;10.88;7.30;;;17.60;99.90;;;;;;12464421;28;20055;-36
2021/09/25 20:37:10;;;;;;;12.55;7.45;;;17.60;99.90;;;;;;12467616;28;20049;-35
2021/09/25 20:43:12;;;;;;;11.38;6.70;;;17.50;99.90;;;;;;12489845;28;20150;-39
2021/09/25 20:49:14;;;;;;;10.77;7.00;;;17.50;99.90;;;;;;12512737;28;20059;-35
2021/09/25 20:55:16;;;;;;;10.90;7.25;;;17.50;99.90;;;;;;12511315;28;20056;-36
2021/09/25 21:01:18;;;;;;;11.15;6.93;;;17.50;99.90;;;;;;12503293;28;20102;-39
2021/09/25 21:07:20;;;;;;;10.15;6.93;;;17.40;99.90;;;;;;12465377;28;20063;-40
2021/09/25 21:13:24;;;;;;;7.70;5.22;;;17.30;99.90;;;;;;12468368;28;20052;-41
2021/09/25 21:19:26;;;;;;;10.15;5.80;;;17.40;99.90;;;;;;12472434;28;20537;-35
2021/09/25 21:25:35;;;;;;;10.95;6.63;;;17.30;99.90;;;;;;12472561;28;21015;-35
2021/09/25 21:31:37;;;;;;;8.23;5.72;;;17.30;99.90;;;;;;12488784;28;20063;-39
2021/09/25 21:37:40;;;;;;;8.80;5.60;;;17.30;99.90;;;;;;12523073;28;20061;-36
2021/09/25 21:43:46;;;;;;;9.98;6.35;;;17.30;99.90;;;;;;12477778;28;20096;-35
2021/09/25 21:49:47;;;;;;;6.88;5.55;;;17.30;99.90;;;;;;12444525;28;20507;-36
2021/09/25 21:55:49;;;;;;;10.07;5.75;;;17.30;99.90;;;;;;12517190;28;20056;-40
2021/09/25 22:01:51;;;;;;;11.07;5.90;;;17.20;99.90;;;;;;12521329;28;20053;-40
2021/09/25 22:07:53;;;;;;;7.25;5.53;;;17.10;99.90;;;;;;12521874;28;20053;-39
2021/09/25 22:13:56;;;;;;;9.10;5.40;;;17.20;99.90;;;;;;12517786;28;20106;-35
2021/09/25 22:19:58;;;;;;;6.72;5.25;;;17.20;99.90;;;;;;12520673;28;20522;-39
2021/09/25 22:26:01;;;;;;;13.45;5.50;;;17.20;99.90;;;;;;12517543;28;20103;-39
2021/09/25 22:32:06;;;;;;;7.90;5.88;;;17.10;99.90;;;;;;12519988;28;20473;-39
2021/09/25 22:38:07;;;;;;;8.43;5.90;;;17.10;99.90;;;;;;12516812;28;20871;-35
2021/09/25 22:44:09;;;;;;;8.27;5.65;;;17.00;99.90;;;;;;12515613;28;20050;-35
2021/09/25 22:50:11;;;;;;;7.15;5.45;;;16.90;99.90;;;;;;12517122;28;20490;-35
2021/09/25 22:56:13;;;;;;;8.13;5.57;;;16.90;99.90;;;;;;12519258;28;20122;-39
2021/09/25 23:02:17;;;;;;;9.45;6.75;;;16.90;99.90;;;;;;12515264;28;20041;-39
2021/09/25 23:08:21;;;;;;;10.65;6.07;;;16.80;99.90;;;;;;12514275;28;20495;-35
2021/09/25 23:14:22;;;;;;;8.43;6.10;;;16.80;99.90;;;;;;12515104;28;20099;-35
2021/09/25 23:20:24;;;;;;;9.07;5.90;;;16.70;99.90;;;;;;12514402;28;20486;-35
2021/09/25 23:26:26;;;;;;;7.22;5.70;;;16.70;99.90;;;;;;12516116;28;20049;-39
2021/09/25 23:32:28;;;;;;;10.82;6.78;;;16.60;99.90;;;;;;12511452;28;20426;-40
2021/09/25 23:38:29;;;;;;;9.20;6.75;;;16.40;99.90;;;;;;12515542;28;20052;-35
2021/09/25 23:44:31;;;;;;;8.48;6.60;;;16.40;99.90;;;;;;12514153;28;20045;-35
2021/09/25 23:50:33;;;;;;;10.40;6.03;;;16.40;99.90;;;;;;12512801;28;20057;-35
2021/09/25 23:56:35;;;;;;;11.48;6.65;;;16.40;99.90;;;;;;12515051;28;20130;-39
